Time,TemperatureF,DewpointF,PressureIn,WindDirection,WindDirectionDegrees,WindSpeedMPH,WindSpeedGustMPH,Humidity,HourlyPrecipIn,Conditions,Clouds,dailyrainin,SoftwareType,DateUTC
2013-06-19 00:13:00,77.7,77.1,29.88,WSW,247,0.0,-999.0,98,-99.99,,,0.00,Acu-Link.com,2013-06-19 05:13:00,
2013-06-19 00:28:00,77.4,76.7,29.88,SSE,157,2.2,-999.0,98,-99.99,,,0.00,Acu-Link.com,2013-06-19 05:28:00,
2013-06-19 00:44:00,77.0,76.4,29.89,NW,315,3.8,-999.0,98,-99.99,,,0.00,Acu-Link.com,2013-06-19 05:44:00,
2013-06-19 00:59:00,76.6,76.0,29.88,NE,45,2.7,-999.0,98,-99.99,,,0.00,Acu-Link.com,2013-06-19 05:59:00,
2013-06-19 01:14:00,77.0,76.4,29.88,West,270,0.0,-999.0,98,-99.99,,,0.00,Acu-Link.com,2013-06-19 06:14:00,
2013-06-19 01:29:00,76.5,75.9,29.89,SSW,202,1.6,-999.0,98,-99.99,,,0.00,Acu-Link.com,2013-06-19 06:29:00,
2013-06-19 01:44:00,76.5,75.9,29.89,South,180,1.1,-999.0,98,-99.99,,,0.00,Acu-Link.com,2013-06-19 06:44:00,
2013-06-19 01:59:00,76.6,76.0,29.88,SSE,157,2.2,-999.0,98,-99.99,,,0.00,Acu-Link.com,2013-06-19 06:59:00,
2013-06-19 02:15:00,76.1,75.5,29.88,ESE,112,0.0,-999.0,98,-99.99,,,0.00,Acu-Link.com,2013-06-19 07:15:00,
2013-06-19 02:30:00,75.7,75.1,29.88,East,90,0.0,-999.0,98,-99.99,,,0.00,Acu-Link.com,2013-06-19 07:30:00,
2013-06-19 02:45:00,75.0,74.4,29.87,SW,225,2.2,-999.0,98,-99.99,,,0.00,Acu-Link.com,2013-06-19 07:45:00,
2013-06-19 03:00:00,74.7,74.1,29.87,West,270,0.0,-999.0,98,-99.99,,,0.00,Acu-Link.com,2013-06-19 08:00:00,
2013-06-19 03:16:00,74.5,73.9,29.87,WNW,292,0.0,-999.0,98,-99.99,,,0.00,Acu-Link.com,2013-06-19 08:16:00,
2013-06-19 03:31:00,74.3,73.7,29.87,WNW,292,0.0,-999.0,98,-99.99,,,0.00,Acu-Link.com,2013-06-19 08:31:00,
2013-06-19 03:46:00,73.9,73.3,29.86,SSE,157,0.0,-999.0,98,-99.99,,,0.00,Acu-Link.com,2013-06-19 08:46:00,
2013-06-19 04:01:00,73.8,73.2,29.87,NE,45,1.1,-999.0,98,-99.99,,,0.00,Acu-Link.com,2013-06-19 09:01:00,
2013-06-19 04:16:00,73.4,72.8,29.86,North,0,0.0,-999.0,98,-99.99,,,0.00,Acu-Link.com,2013-06-19 09:16:00,
2013-06-19 04:31:00,73.0,72.4,29.86,ESE,112,0.0,-999.0,98,-99.99,,,0.00,Acu-Link.com,2013-06-19 09:31:00,
2013-06-19 04:46:00,72.7,72.1,29.86,North,0,0.0,-999.0,98,-99.99,,,0.00,Acu-Link.com,2013-06-19 09:46:00,
2013-06-19 05:02:00,72.7,72.1,29.86,SW,225,0.0,-999.0,98,-99.99,,,0.00,Acu-Link.com,2013-06-19 10:02:00,
2013-06-19 05:17:00,72.5,71.9,29.87,South,180,1.1,-999.0,98,-99.99,,,0.00,Acu-Link.com,2013-06-19 10:17:00,
2013-06-19 05:32:00,72.5,71.9,29.87,NE,45,0.0,-999.0,98,-99.99,,,0.00,Acu-Link.com,2013-06-19 10:32:00,
2013-06-19 05:47:00,72.5,71.9,29.87,NE,45,0.0,-999.0,98,-99.99,,,0.00,Acu-Link.com,2013-06-19 10:47:00,
2013-06-19 06:02:00,72.5,71.9,29.87,SW,225,1.1,-999.0,98,-99.99,,,0.00,Acu-Link.com,2013-06-19 11:02:00,
2013-06-19 06:18:00,72.5,71.9,29.87,NNE,22,0.0,-999.0,98,-99.99,,,0.00,Acu-Link.com,2013-06-19 11:18:00,
2013-06-19 06:33:00,72.5,71.9,29.88,SSW,202,1.1,-999.0,98,-99.99,,,0.00,Acu-Link.com,2013-06-19 11:33:00,
2013-06-19 06:48:00,72.5,71.9,29.89,SSE,157,2.2,-999.0,98,-99.99,,,0.00,Acu-Link.com,2013-06-19 11:48:00,
2013-06-19 07:03:00,72.7,72.1,29.89,South,180,1.1,-999.0,98,-99.99,,,0.00,Acu-Link.com,2013-06-19 12:03:00,
2013-06-19 07:18:00,74.3,73.7,29.89,ESE,112,1.6,-999.0,98,-99.99,,,0.00,Acu-Link.com,2013-06-19 12:18:00,
2013-06-19 07:34:00,76.3,75.7,29.89,ENE,67,2.2,-999.0,98,-99.99,,,0.00,Acu-Link.com,2013-06-19 12:34:00,
2013-06-19 07:49:00,78.3,77.6,29.89,SSE,157,1.6,-999.0,98,-99.99,,,0.00,Acu-Link.com,2013-06-19 12:49:00,
2013-06-19 08:04:00,78.8,78.2,29.88,SSE,157,6.3,-999.0,98,-99.99,,,0.00,Acu-Link.com,2013-06-19 13:04:00,
2013-06-19 08:19:00,80.4,79.8,29.88,SSE,157,3.1,-999.0,98,-99.99,,,0.00,Acu-Link.com,2013-06-19 13:19:00,
2013-06-19 08:34:00,82.4,81.8,29.89,SSE,157,5.1,-999.0,98,-99.99,,,0.00,Acu-Link.com,2013-06-19 13:34:00,
2013-06-19 08:50:00,81.7,81.1,29.89,South,180,3.8,-999.0,98,-99.99,,,0.00,Acu-Link.com,2013-06-19 13:50:00,
2013-06-19 09:05:00,82.9,82.3,29.89,West,270,5.1,-999.0,98,-99.99,,,0.00,Acu-Link.com,2013-06-19 14:05:00,
2013-06-19 09:20:00,83.8,83.2,29.89,South,180,8.3,-999.0,98,-99.99,,,0.00,Acu-Link.com,2013-06-19 14:20:00,
2013-06-19 09:35:00,86.0,84.1,29.90,SW,225,7.8,-999.0,94,-99.99,,,0.00,Acu-Link.com,2013-06-19 14:35:00,
2013-06-19 09:51:00,86.2,82.9,29.90,South,180,9.4,-999.0,90,-99.99,,,0.00,Acu-Link.com,2013-06-19 14:51:00,
2013-06-19 10:06:00,88.5,83.4,29.90,South,180,4.7,-999.0,85,-99.99,,,0.00,Acu-Link.com,2013-06-19 15:06:00,
2013-06-19 10:21:00,88.3,81.0,29.91,South,180,7.4,-999.0,79,-99.99,,,0.00,Acu-Link.com,2013-06-19 15:21:00,
2013-06-19 10:36:00,91.4,81.9,29.90,SW,225,4.7,-999.0,74,-99.99,,,0.00,Acu-Link.com,2013-06-19 15:36:00,
2013-06-19 10:51:00,90.3,79.2,29.90,SSW,202,7.4,-999.0,70,-99.99,,,0.00,Acu-Link.com,2013-06-19 15:51:00,
2013-06-19 11:07:00,91.0,79.4,29.89,WSW,247,4.7,-999.0,69,-99.99,,,0.00,Acu-Link.com,2013-06-19 16:07:00,
2013-06-19 11:22:00,92.8,79.3,29.89,South,180,4.3,-999.0,65,-99.99,,,0.00,Acu-Link.com,2013-06-19 16:22:00,
2013-06-19 11:37:00,92.8,77.4,29.89,SW,225,9.4,-999.0,61,-99.99,,,0.00,Acu-Link.com,2013-06-19 16:37:00,
2013-06-19 11:52:00,95.7,78.0,29.89,SE,135,4.7,-999.0,57,-99.99,,,0.00,Acu-Link.com,2013-06-19 16:52:00,
2013-06-19 12:07:00,94.8,77.2,29.89,South,180,7.4,-999.0,57,-99.99,,,0.00,Acu-Link.com,2013-06-19 17:07:00,
2013-06-19 12:23:00,93.2,76.7,29.89,SSE,157,6.3,-999.0,59,-99.99,,,0.00,Acu-Link.com,2013-06-19 17:23:00,
2013-06-19 12:38:00,95.7,78.0,29.89,SSW,202,5.1,-999.0,57,-99.99,,,0.00,Acu-Link.com,2013-06-19 17:38:00,
2013-06-19 12:53:00,95.9,77.1,29.89,SW,225,1.1,-999.0,55,-99.99,,,0.00,Acu-Link.com,2013-06-19 17:53:00,
2013-06-19 13:08:00,97.2,77.1,29.89,SSW,202,4.3,-999.0,53,-99.99,,,0.00,Acu-Link.com,2013-06-19 18:08:00,
2013-06-19 13:23:00,96.4,77.0,29.88,SE,135,1.6,-999.0,54,-99.99,,,0.00,Acu-Link.com,2013-06-19 18:23:00,
2013-06-19 13:39:00,94.1,75.4,29.89,SSW,202,5.8,-999.0,55,-99.99,,,0.00,Acu-Link.com,2013-06-19 18:39:00,
2013-06-19 13:54:00,93.4,74.8,29.88,SSW,202,4.7,-999.0,55,-99.99,,,0.00,Acu-Link.com,2013-06-19 18:54:00,
2013-06-19 14:09:00,100.4,77.7,29.88,SW,225,3.8,-999.0,49,-99.99,,,0.00,Acu-Link.com,2013-06-19 19:09:00,
2013-06-19 14:24:00,97.9,76.6,29.87,North,0,2.2,-999.0,51,-99.99,,,0.00,Acu-Link.com,2013-06-19 19:24:00,
2013-06-19 14:40:00,95.2,74.1,29.86,ESE,112,2.7,-999.0,51,-99.99,,,0.00,Acu-Link.com,2013-06-19 19:40:00,
2013-06-19 14:55:00,101.3,76.6,29.85,SSW,202,2.7,-999.0,46,-99.99,,,0.00,Acu-Link.com,2013-06-19 19:55:00,
2013-06-19 15:10:00,99.3,75.5,29.84,WSW,247,3.8,-999.0,47,-99.99,,,0.00,Acu-Link.com,2013-06-19 20:10:00,
2013-06-19 15:25:00,100.2,76.3,29.84,SSE,157,8.3,-999.0,47,-99.99,,,0.00,Acu-Link.com,2013-06-19 20:25:00,
2013-06-19 15:40:00,97.5,75.1,29.85,SW,225,3.8,-999.0,49,-99.99,,,0.00,Acu-Link.com,2013-06-19 20:40:00,
2013-06-19 15:56:00,99.1,75.9,29.86,ESE,112,2.7,-999.0,48,-99.99,,,0.00,Acu-Link.com,2013-06-19 20:56:00,
2013-06-19 16:11:00,96.4,74.1,29.86,South,180,2.2,-999.0,49,-99.99,,,0.00,Acu-Link.com,2013-06-19 21:11:00,
2013-06-19 16:26:00,95.9,73.6,29.86,South,180,2.2,-999.0,49,-99.99,,,0.00,Acu-Link.com,2013-06-19 21:26:00,
2013-06-19 16:41:00,95.2,74.1,29.86,WSW,247,1.6,-999.0,51,-99.99,,,0.00,Acu-Link.com,2013-06-19 21:41:00,
2013-06-19 16:56:00,94.6,73.1,29.86,ESE,112,1.6,-999.0,50,-99.99,,,0.00,Acu-Link.com,2013-06-19 21:56:00,
2013-06-19 17:12:00,82.2,71.9,29.86,East,90,14.5,-999.0,71,-99.99,,,0.00,Acu-Link.com,2013-06-19 22:12:00,
2013-06-19 17:27:00,73.9,73.3,29.92,NE,45,13.0,-999.0,98,-99.99,,,0.00,Acu-Link.com,2013-06-19 22:27:00,
2013-06-19 17:42:00,72.5,71.9,29.92,NW,315,18.1,-999.0,98,-99.99,,,0.01,Acu-Link.com,2013-06-19 22:42:00,
2013-06-19 17:57:00,72.5,71.9,29.90,North,0,7.8,-999.0,98,-99.99,,,0.02,Acu-Link.com,2013-06-19 22:57:00,
2013-06-19 18:12:00,72.9,72.3,29.89,ENE,67,5.8,-999.0,98,-99.99,,,0.02,Acu-Link.com,2013-06-19 23:12:00,
2013-06-19 18:27:00,74.3,73.7,29.89,ESE,112,4.3,-999.0,98,-99.99,,,0.02,Acu-Link.com,2013-06-19 23:27:00,
2013-06-19 18:43:00,74.8,74.2,29.88,ENE,67,3.1,-999.0,98,-99.99,,,0.02,Acu-Link.com,2013-06-19 23:43:00,
2013-06-19 18:58:00,74.7,74.1,29.87,NNE,22,3.1,-999.0,98,-99.99,,,0.02,Acu-Link.com,2013-06-19 23:58:00,
2013-06-19 19:13:00,76.3,75.7,29.86,ESE,112,2.2,-999.0,98,-99.99,,,0.02,Acu-Link.com,2013-06-20 00:13:00,
2013-06-19 19:28:00,77.2,76.6,29.84,East,90,2.2,-999.0,98,-99.99,,,0.02,Acu-Link.com,2013-06-20 00:28:00,
2013-06-19 19:43:00,77.7,77.1,29.83,ESE,112,0.0,-999.0,98,-99.99,,,0.02,Acu-Link.com,2013-06-20 00:43:00,
2013-06-19 19:59:00,77.7,77.1,29.83,SE,135,1.6,-999.0,98,-99.99,,,0.02,Acu-Link.com,2013-06-20 00:59:00,
2013-06-19 20:14:00,77.4,76.7,29.82,SE,135,1.1,-999.0,98,-99.99,,,0.02,Acu-Link.com,2013-06-20 01:14:00,
2013-06-19 20:29:00,77.0,76.4,29.81,SSE,157,2.7,-999.0,98,-99.99,,,0.02,Acu-Link.com,2013-06-20 01:29:00,
2013-06-19 20:44:00,76.5,75.9,29.82,South,180,4.3,-999.0,98,-99.99,,,0.02,Acu-Link.com,2013-06-20 01:44:00,
2013-06-19 21:00:00,76.5,75.9,29.82,NE,45,0.0,-999.0,98,-99.99,,,0.02,Acu-Link.com,2013-06-20 02:00:00,
2013-06-19 21:15:00,76.5,75.9,29.85,SW,225,0.0,-999.0,98,-99.99,,,0.02,Acu-Link.com,2013-06-20 02:15:00,
2013-06-19 21:30:00,75.9,75.3,29.86,East,90,0.0,-999.0,98,-99.99,,,0.02,Acu-Link.com,2013-06-20 02:30:00,
2013-06-19 21:45:00,75.6,75.0,29.86,SE,135,0.0,-999.0,98,-99.99,,,0.02,Acu-Link.com,2013-06-20 02:45:00,
2013-06-19 22:00:00,75.6,75.0,29.85,East,90,0.0,-999.0,98,-99.99,,,0.02,Acu-Link.com,2013-06-20 03:00:00,
2013-06-19 22:16:00,75.0,74.4,29.87,WSW,247,0.0,-999.0,98,-99.99,,,0.02,Acu-Link.com,2013-06-20 03:16:00,
2013-06-19 22:31:00,74.8,74.2,29.87,NW,315,0.0,-999.0,98,-99.99,,,0.02,Acu-Link.com,2013-06-20 03:31:00,
2013-06-19 22:46:00,74.8,74.2,29.88,NNW,337,0.0,-999.0,98,-99.99,,,0.02,Acu-Link.com,2013-06-20 03:46:00,
2013-06-19 23:01:00,73.9,73.3,29.89,NNW,337,0.0,-999.0,98,-99.99,,,0.02,Acu-Link.com,2013-06-20 04:01:00,
2013-06-19 23:16:00,73.4,72.8,29.89,SW,225,0.0,-999.0,98,-99.99,,,0.02,Acu-Link.com,2013-06-20 04:16:00,
2013-06-19 23:31:00,72.9,72.3,29.89,East,90,0.0,-999.0,98,-99.99,,,0.02,Acu-Link.com,2013-06-20 04:31:00,
2013-06-19 23:46:00,72.9,72.3,29.89,South,180,0.0,-999.0,98,-99.99,,,0.02,Acu-Link.com,2013-06-20 04:46:00,